createdAt,value
2023-02-27T00:00:52.048Z,26.73
2023-02-27T00:01:51.098Z,26.75
2023-02-27T00:02:51.200Z,26.74
2023-02-27T00:03:52.317Z,26.73
2023-02-27T00:04:52.292Z,26.72
2023-02-27T00:05:52.323Z,26.72
2023-02-27T00:06:52.405Z,26.75
2023-02-27T00:07:52.447Z,26.73
2023-02-27T00:08:52.573Z,26.72
2023-02-27T00:09:51.566Z,26.72
2023-02-27T00:10:52.623Z,26.72
2023-02-27T00:11:52.684Z,26.72
2023-02-27T00:12:52.729Z,26.70
2023-02-27T00:13:52.798Z,26.71
2023-02-27T00:14:51.848Z,26.71
2023-02-27T00:15:52.933Z,26.70
2023-02-27T00:16:52.963Z,26.69
2023-02-27T00:17:53.048Z,26.71
2023-02-27T00:18:52.075Z,26.72
2023-02-27T00:19:53.123Z,26.70
2023-02-27T00:20:53.193Z,26.72
2023-02-27T00:21:53.243Z,26.70
2023-02-27T00:22:53.305Z,26.70
2023-02-27T00:23:53.359Z,26.69
2023-02-27T00:24:53.434Z,26.70
2023-02-27T00:25:52.464Z,26.72
2023-02-27T00:26:53.531Z,26.67
2023-02-27T00:27:53.573Z,26.72
2023-02-27T00:28:53.727Z,26.65
2023-02-27T00:29:53.693Z,26.66
2023-02-27T00:30:52.822Z,26.70
2023-02-27T00:31:53.936Z,26.68
2023-02-27T00:32:53.872Z,26.69
2023-02-27T00:33:53.960Z,26.66
2023-02-27T00:34:53.998Z,26.72
2023-02-27T00:35:54.064Z,26.70
2023-02-27T00:36:54.133Z,26.69
2023-02-27T00:37:53.185Z,26.70
2023-02-27T00:38:54.249Z,26.72
2023-02-27T00:39:54.300Z,26.69
2023-02-27T00:40:54.381Z,26.73
2023-02-27T00:41:54.410Z,26.74
2023-02-27T00:42:54.484Z,26.79
2023-02-27T00:43:54.551Z,26.74
2023-02-27T00:44:54.591Z,26.66
2023-02-27T00:45:54.649Z,26.70
2023-02-27T00:46:54.763Z,26.73
2023-02-27T00:47:54.752Z,26.76
2023-02-27T00:48:54.815Z,26.70
2023-02-27T00:49:54.866Z,26.64
2023-02-27T00:50:54.940Z,26.72
2023-02-27T00:51:55.040Z,26.67
2023-02-27T00:52:55.065Z,26.69
2023-02-27T00:53:55.113Z,26.70
2023-02-27T00:54:55.153Z,26.72
2023-02-27T00:55:55.229Z,26.67
2023-02-27T00:56:54.301Z,26.70
2023-02-27T00:57:55.383Z,26.70
2023-02-27T00:58:55.432Z,26.69
2023-02-27T00:59:55.455Z,26.71
2023-02-27T01:00:55.584Z,26.72
2023-02-27T01:01:55.568Z,26.72
2023-02-27T01:02:54.659Z,26.73
2023-02-27T01:03:54.704Z,26.78
2023-02-27T01:04:56.269Z,26.71
2023-02-27T01:05:55.834Z,26.69
2023-02-27T01:06:55.905Z,26.67
2023-02-27T01:07:55.970Z,26.67
2023-02-27T01:08:56.036Z,26.73
2023-02-27T01:09:56.094Z,26.68
2023-02-27T01:10:56.161Z,26.67
2023-02-27T01:11:56.255Z,26.68
2023-02-27T01:12:55.286Z,26.69
2023-02-27T01:13:56.345Z,26.70
2023-02-27T01:14:56.403Z,26.71
2023-02-27T01:15:56.472Z,26.70
2023-02-27T01:16:56.542Z,26.73
2023-02-27T01:17:56.592Z,26.77
2023-02-27T01:18:56.661Z,26.75
2023-02-27T01:19:56.729Z,26.71
2023-02-27T01:20:56.788Z,26.73
2023-02-27T01:21:55.855Z,26.80
2023-02-27T01:22:55.917Z,26.82
2023-02-27T01:23:56.972Z,26.71
2023-02-27T01:24:57.044Z,26.77
2023-02-27T01:25:57.092Z,26.73
2023-02-27T01:26:57.155Z,26.71
2023-02-27T01:27:56.258Z,26.71
2023-02-27T01:28:56.276Z,26.69
2023-02-27T01:29:56.340Z,26.76
2023-02-27T01:30:57.475Z,26.74
2023-02-27T01:31:57.653Z,26.69
2023-02-27T01:32:57.507Z,26.70
2023-02-27T01:33:57.575Z,26.76
2023-02-27T01:34:56.646Z,26.74
2023-02-27T01:35:56.720Z,26.74
2023-02-27T01:36:57.763Z,26.70
2023-02-27T01:37:57.805Z,26.76
2023-02-27T01:38:56.887Z,26.76
2023-02-27T01:39:57.944Z,26.77
2023-02-27T01:40:56.999Z,26.72
2023-02-27T01:41:58.050Z,26.72
2023-02-27T01:42:58.114Z,26.72
2023-02-27T01:43:58.196Z,26.71
2023-02-27T01:44:58.239Z,26.71
2023-02-27T01:45:58.314Z,26.73
2023-02-27T01:46:58.376Z,26.69
2023-02-27T01:47:58.433Z,26.71
2023-02-27T01:48:58.488Z,26.77
2023-02-27T01:49:58.567Z,26.70
2023-02-27T01:50:57.638Z,26.72
2023-02-27T01:51:58.670Z,26.71
2023-02-27T01:52:58.725Z,26.72
2023-02-27T01:53:58.787Z,26.69
2023-02-27T01:54:57.831Z,26.73
2023-02-27T01:55:58.907Z,26.73
2023-02-27T01:56:58.972Z,26.74
2023-02-27T01:57:59.021Z,26.73
2023-02-27T01:58:59.080Z,26.75
2023-02-27T01:59:59.145Z,26.75
2023-02-27T02:00:59.280Z,26.76
2023-02-27T02:01:59.314Z,26.74
2023-02-27T02:02:59.323Z,26.70
2023-02-27T02:03:59.381Z,26.77
2023-02-27T02:04:59.455Z,26.74
2023-02-27T02:05:58.485Z,26.71
2023-02-27T02:06:59.547Z,26.69
2023-02-27T02:07:59.599Z,26.70
2023-02-27T02:08:59.682Z,26.74
2023-02-27T02:09:59.741Z,26.73
2023-02-27T02:10:59.789Z,26.71
2023-02-27T02:11:59.853Z,26.78
2023-02-27T02:12:58.918Z,26.77
2023-02-27T02:13:59.964Z,26.74
2023-02-27T02:15:00.039Z,26.72
2023-02-27T02:15:59.114Z,26.71
2023-02-27T02:17:00.208Z,26.70
2023-02-27T02:18:00.210Z,26.71
2023-02-27T02:18:59.269Z,26.74
2023-02-27T02:20:00.345Z,26.72
2023-02-27T02:20:59.385Z,26.70
2023-02-27T02:22:00.448Z,26.70
2023-02-27T02:23:00.510Z,26.73
2023-02-27T02:24:00.564Z,26.73
2023-02-27T02:25:00.635Z,26.69
2023-02-27T02:25:59.691Z,26.73
2023-02-27T02:26:59.771Z,26.71
2023-02-27T02:28:00.810Z,26.75
2023-02-27T02:28:59.879Z,26.77
2023-02-27T02:30:00.943Z,26.74
2023-02-27T02:31:01.117Z,26.81
2023-02-27T02:32:01.171Z,26.83
2023-02-27T02:33:01.161Z,26.74
2023-02-27T02:34:00.188Z,26.75
2023-02-27T02:35:00.286Z,26.75
2023-02-27T02:36:01.309Z,26.74
2023-02-27T02:37:00.373Z,26.74
2023-02-27T02:38:00.466Z,26.69
2023-02-27T02:39:01.510Z,26.75
2023-02-27T02:40:01.597Z,26.77
2023-02-27T02:41:01.642Z,26.71
2023-02-27T02:42:01.717Z,26.75
2023-02-27T02:43:01.753Z,26.71
2023-02-27T02:44:01.820Z,26.72
2023-02-27T02:45:01.896Z,26.75
2023-02-27T02:46:02.064Z,26.75
2023-02-27T02:47:01.996Z,26.75
2023-02-27T02:48:02.084Z,26.77
2023-02-27T02:49:01.134Z,26.75
2023-02-27T02:50:01.210Z,26.74
2023-02-27T02:51:02.259Z,26.74
2023-02-27T02:52:02.326Z,26.74
2023-02-27T02:53:02.378Z,26.71
2023-02-27T02:54:02.438Z,26.73
2023-02-27T02:55:02.498Z,26.71
2023-02-27T02:56:02.556Z,26.69
2023-02-27T02:57:02.650Z,26.75
2023-02-27T02:58:02.691Z,26.73
2023-02-27T02:59:02.751Z,26.71
2023-02-27T03:00:02.810Z,26.75
2023-02-27T03:01:03.047Z,26.83
2023-02-27T03:02:02.939Z,26.74
2023-02-27T03:03:03.004Z,26.79
2023-02-27T03:04:03.154Z,26.78
2023-02-27T03:05:02.120Z,26.73
2023-02-27T03:06:03.205Z,26.75
2023-02-27T03:07:03.246Z,26.76
2023-02-27T03:08:03.359Z,26.75
2023-02-27T03:09:02.379Z,26.76
2023-02-27T03:10:02.453Z,26.77
2023-02-27T03:11:03.519Z,26.82
2023-02-27T03:12:03.567Z,26.80
2023-02-27T03:13:03.608Z,26.77
2023-02-27T03:14:03.638Z,26.81
2023-02-27T03:15:02.663Z,26.79
2023-02-27T03:16:02.824Z,26.80
2023-02-27T03:17:03.750Z,26.76
2023-02-27T03:18:03.809Z,26.78
2023-02-27T03:19:02.858Z,26.78
2023-02-27T03:20:03.929Z,26.79
2023-02-27T03:21:03.981Z,26.85
2023-02-27T03:22:04.025Z,26.80
2023-02-27T03:23:03.059Z,26.81
2023-02-27T03:24:04.136Z,26.80
2023-02-27T03:25:03.140Z,26.84
2023-02-27T03:26:04.181Z,26.88
2023-02-27T03:27:04.239Z,26.80
2023-02-27T03:28:04.286Z,26.84
2023-02-27T03:29:04.339Z,26.79
2023-02-27T03:30:03.385Z,26.83
2023-02-27T03:31:04.555Z,26.82
2023-02-27T03:32:04.620Z,26.83
2023-02-27T03:33:03.541Z,26.82
2023-02-27T03:34:04.577Z,26.81
2023-02-27T03:35:03.637Z,26.78
2023-02-27T03:36:03.745Z,26.79
2023-02-27T03:37:03.741Z,26.79
2023-02-27T03:38:04.788Z,26.82
2023-02-27T03:39:04.824Z,26.85
2023-02-27T03:40:04.867Z,26.85
2023-02-27T03:41:04.941Z,26.86
2023-02-27T03:42:04.993Z,26.85
2023-02-27T03:43:05.040Z,26.86
2023-02-27T03:44:05.058Z,26.83
2023-02-27T03:45:05.138Z,26.86
2023-02-27T03:46:05.170Z,26.82
2023-02-27T03:47:04.193Z,26.83
2023-02-27T03:48:05.242Z,26.82
2023-02-27T03:49:05.286Z,26.81
2023-02-27T03:50:05.338Z,26.82
2023-02-27T03:51:05.389Z,26.84
2023-02-27T03:52:05.451Z,26.81
2023-02-27T03:53:05.476Z,26.85
2023-02-27T03:54:05.520Z,26.85
2023-02-27T03:55:05.574Z,26.79
2023-02-27T03:56:05.650Z,26.85
2023-02-27T03:57:04.685Z,26.83
2023-02-27T03:58:05.742Z,26.86
2023-02-27T03:59:05.800Z,26.86
2023-02-27T04:00:05.844Z,26.81
2023-02-27T04:01:05.896Z,26.83
2023-02-27T04:02:05.037Z,26.87
2023-02-27T04:03:05.116Z,26.80
2023-02-27T04:04:05.037Z,26.79
2023-02-27T04:05:05.088Z,26.81
2023-02-27T04:06:06.165Z,26.82
2023-02-27T04:07:06.209Z,26.85
2023-02-27T04:08:06.307Z,26.82
2023-02-27T04:09:06.322Z,26.84
2023-02-27T04:10:05.393Z,26.81
2023-02-27T04:11:06.444Z,26.82
2023-02-27T04:12:06.502Z,26.85
2023-02-27T04:13:06.574Z,26.85
2023-02-27T04:14:06.634Z,26.84
2023-02-27T04:15:06.681Z,26.81
2023-02-27T04:16:06.876Z,26.79
2023-02-27T04:17:06.798Z,26.78
2023-02-27T04:18:06.869Z,26.81
2023-02-27T04:19:06.916Z,26.86
2023-02-27T04:20:05.991Z,26.85
2023-02-27T04:21:07.048Z,26.84
2023-02-27T04:22:07.115Z,26.83
2023-02-27T04:23:06.183Z,26.81
2023-02-27T04:24:07.277Z,26.79
2023-02-27T04:25:06.292Z,26.82
2023-02-27T04:26:07.360Z,26.86
2023-02-27T04:27:07.419Z,26.83
2023-02-27T04:28:07.516Z,26.86
2023-02-27T04:29:07.558Z,26.83
2023-02-27T04:30:06.585Z,26.80
2023-02-27T04:31:07.702Z,26.83
2023-02-27T04:32:06.843Z,26.86
2023-02-27T04:33:06.717Z,26.84
2023-02-27T04:34:07.775Z,26.81
2023-02-27T04:35:07.801Z,26.83
2023-02-27T04:36:07.830Z,26.83
2023-02-27T04:37:07.868Z,26.85
2023-02-27T04:38:06.878Z,26.86
2023-02-27T04:39:07.915Z,26.89
2023-02-27T04:40:07.960Z,26.87
2023-02-27T04:41:07.943Z,26.89
2023-02-27T04:42:06.970Z,26.87
2023-02-27T04:43:07.986Z,26.89
2023-02-27T04:44:08.014Z,26.87
2023-02-27T04:45:08.066Z,26.89
2023-02-27T04:46:07.131Z,26.86
2023-02-27T04:47:07.083Z,26.91
2023-02-27T04:48:08.108Z,26.92
2023-02-27T04:49:07.124Z,26.88
2023-02-27T04:50:08.147Z,26.89
2023-02-27T04:51:07.589Z,26.85
2023-02-27T04:52:07.192Z,26.82
2023-02-27T04:53:08.217Z,26.83
2023-02-27T04:54:08.225Z,26.81
2023-02-27T04:55:08.262Z,26.81
2023-02-27T04:56:08.302Z,26.84
2023-02-27T04:57:08.279Z,26.86
2023-02-27T04:58:08.291Z,26.83
2023-02-27T04:59:08.343Z,26.83
2023-02-27T05:00:08.330Z,26.87
2023-02-27T05:01:07.345Z,26.83
2023-02-27T05:02:07.472Z,26.84
2023-02-27T05:03:08.391Z,26.86
2023-02-27T05:04:07.398Z,26.85
2023-02-27T05:05:08.404Z,26.87
2023-02-27T05:06:08.427Z,26.85
2023-02-27T05:07:07.452Z,26.88
2023-02-27T05:08:08.452Z,26.87
2023-02-27T05:09:08.483Z,26.88
2023-02-27T05:10:08.514Z,26.85
2023-02-27T05:11:08.549Z,26.84
2023-02-27T05:12:08.610Z,26.86
2023-02-27T05:13:08.588Z,26.86
2023-02-27T05:14:08.613Z,26.87
2023-02-27T05:15:07.630Z,26.88
2023-02-27T05:16:07.760Z,26.87
2023-02-27T05:17:08.608Z,26.85
2023-02-27T05:18:08.719Z,26.87
2023-02-27T05:19:07.637Z,26.90
2023-02-27T05:20:07.687Z,26.93
2023-02-27T05:21:08.684Z,26.93
2023-02-27T05:22:08.720Z,26.95
2023-02-27T05:23:08.728Z,26.91
2023-02-27T05:24:08.730Z,26.92
2023-02-27T05:25:08.755Z,26.92
2023-02-27T05:26:08.750Z,26.89
2023-02-27T05:27:08.776Z,26.90
2023-02-27T05:28:08.814Z,26.91
2023-02-27T05:29:08.787Z,26.92
2023-02-27T05:30:08.830Z,26.94
2023-02-27T05:31:08.833Z,26.92
2023-02-27T05:32:09.023Z,26.90
2023-02-27T05:33:08.883Z,26.88
2023-02-27T05:34:08.896Z,26.88
2023-02-27T05:35:08.940Z,26.91
2023-02-27T05:36:09.038Z,26.92
2023-02-27T05:37:08.004Z,26.90
2023-02-27T05:38:09.009Z,26.90
2023-02-27T05:39:09.045Z,26.88
2023-02-27T05:40:09.031Z,26.90
2023-02-27T05:41:09.450Z,26.89
2023-02-27T05:42:09.068Z,26.95
2023-02-27T05:43:09.091Z,26.91
2023-02-27T05:44:09.143Z,26.90
2023-02-27T05:45:09.136Z,26.91
2023-02-27T05:46:09.214Z,26.91
2023-02-27T05:47:08.188Z,26.96
2023-02-27T05:48:09.134Z,26.90
2023-02-27T05:49:08.159Z,26.96
2023-02-27T05:50:09.163Z,26.91
2023-02-27T05:51:09.187Z,26.90
2023-02-27T05:52:09.193Z,26.94
2023-02-27T05:53:08.211Z,26.93
2023-02-27T05:54:09.235Z,26.96
2023-02-27T05:55:08.241Z,26.93
2023-02-27T05:56:09.301Z,26.93
2023-02-27T05:57:09.279Z,26.89
2023-02-27T05:58:09.298Z,26.93
2023-02-27T05:59:08.301Z,26.91
2023-02-27T06:00:09.340Z,26.92
2023-02-27T06:01:08.323Z,26.89
2023-02-27T06:02:09.415Z,26.90
2023-02-27T06:03:09.421Z,26.86
2023-02-27T07:38:12.446Z,30.77
2023-02-27T07:39:12.513Z,30.67
2023-02-27T07:40:12.566Z,30.53
2023-02-27T07:42:12.690Z,30.97
2023-02-27T07:43:12.749Z,30.85
2023-02-27T07:44:12.765Z,30.82
2023-02-27T07:46:12.938Z,31.36
2023-02-27T07:47:12.934Z,31.07
2023-02-27T07:48:12.987Z,30.97
2023-02-27T07:49:13.033Z,31.31
2023-02-27T07:50:13.093Z,31.13
2023-02-27T07:51:13.170Z,30.95
2023-02-27T07:52:13.306Z,31.12
2023-02-27T07:53:13.258Z,31.19
2023-02-27T07:54:13.328Z,31.63
2023-02-27T07:55:13.394Z,31.45
2023-02-27T07:56:13.458Z,31.64
2023-02-27T07:57:13.758Z,31.47
2023-02-27T07:58:14.245Z,31.78
2023-02-27T07:59:13.608Z,31.48
2023-02-27T08:00:13.690Z,31.54
2023-02-27T08:01:13.742Z,31.81
2023-02-27T08:02:13.796Z,31.61
2023-02-27T08:03:13.817Z,31.35
2023-02-27T08:04:13.936Z,31.58
2023-02-27T08:05:13.941Z,31.58
2023-02-27T08:06:14.016Z,31.58
2023-02-27T08:07:14.073Z,31.63
2023-02-27T08:08:14.013Z,32.19
2023-02-27T08:09:14.074Z,31.86
2023-02-27T08:10:14.071Z,32.32
2023-02-27T08:11:14.111Z,31.85
2023-02-27T08:12:14.148Z,32.04
2023-02-27T08:13:14.177Z,31.94
2023-02-27T08:14:14.164Z,31.98
2023-02-27T08:15:14.189Z,31.84
2023-02-27T08:16:13.307Z,31.88
2023-02-27T08:17:14.305Z,31.94
2023-02-27T08:18:14.239Z,31.90
2023-02-27T08:19:14.261Z,31.85
2023-02-27T08:20:14.271Z,31.95
2023-02-27T08:21:14.291Z,32.01
2023-02-27T08:22:14.316Z,32.23
2023-02-27T08:23:14.357Z,32.30
2023-02-27T08:24:13.309Z,32.12
2023-02-27T08:25:14.342Z,32.47
2023-02-27T08:26:14.316Z,33.04
2023-02-27T08:27:14.352Z,33.00
2023-02-27T08:28:14.334Z,32.90
2023-02-27T08:29:16.849Z,32.56
2023-02-27T08:30:14.341Z,32.64
2023-02-27T08:31:14.400Z,33.17
2023-02-27T08:32:14.407Z,33.54
2023-02-27T08:33:14.314Z,32.94
2023-02-27T08:34:14.307Z,32.81
2023-02-27T08:35:14.296Z,32.68
2023-02-27T08:36:13.337Z,33.19
2023-02-27T08:37:14.277Z,33.01
2023-02-27T08:38:14.269Z,32.82
2023-02-27T08:39:14.290Z,32.81
2023-02-27T08:40:14.247Z,32.74
2023-02-27T08:41:13.240Z,33.19
2023-02-27T08:42:13.229Z,33.09
2023-02-27T08:43:13.291Z,33.31
2023-02-27T08:44:14.224Z,33.12
2023-02-27T08:45:14.236Z,33.37
2023-02-27T08:46:14.281Z,33.50
2023-02-27T08:47:14.204Z,33.78
2023-02-27T08:48:14.266Z,33.76
2023-02-27T08:49:14.188Z,33.36
2023-02-27T08:50:14.180Z,33.43
2023-02-27T08:51:14.184Z,33.60
2023-02-27T08:52:14.182Z,33.81
2023-02-27T08:53:14.269Z,33.56
2023-02-27T08:54:14.158Z,33.44
2023-02-27T08:55:14.174Z,33.34
2023-02-27T08:56:14.154Z,33.15
2023-02-27T08:57:14.121Z,33.06
2023-02-27T08:58:13.120Z,33.30
2023-02-27T08:59:14.120Z,33.23
2023-02-27T09:00:13.187Z,33.11
2023-02-27T09:01:14.181Z,33.28
2023-02-27T09:02:14.101Z,33.10
2023-02-27T09:03:14.097Z,33.11
2023-02-27T09:04:13.079Z,33.02
2023-02-27T09:05:13.070Z,33.04
2023-02-27T09:06:13.058Z,33.39
2023-02-27T09:07:14.079Z,33.23
2023-02-27T09:08:14.055Z,33.48
2023-02-27T09:09:14.036Z,33.62
2023-02-27T09:10:13.035Z,33.31
2023-02-27T09:11:14.046Z,33.30
2023-02-27T09:12:14.029Z,33.76
2023-02-27T09:13:14.018Z,33.77
2023-02-27T09:14:13.064Z,33.72
2023-02-27T09:15:14.132Z,33.77
2023-02-27T09:16:14.265Z,33.60
2023-02-27T09:17:13.245Z,33.50
2023-02-27T09:18:14.319Z,33.69
2023-02-27T09:19:14.401Z,33.51
2023-02-27T09:20:14.423Z,33.58
2023-02-27T09:21:14.482Z,33.68
2023-02-27T09:22:13.529Z,33.64
2023-02-27T09:23:14.628Z,33.97
2023-02-27T09:24:20.080Z,33.94
2023-02-27T09:25:14.659Z,33.87
2023-02-27T09:26:14.642Z,33.90
2023-02-27T09:27:14.669Z,34.04
2023-02-27T09:28:14.631Z,33.87
2023-02-27T09:29:14.618Z,33.94
2023-02-27T09:30:14.627Z,33.85
2023-02-27T09:31:14.651Z,33.81
2023-02-27T09:32:14.743Z,34.10
2023-02-27T09:33:13.591Z,33.84
2023-02-27T09:34:14.594Z,33.92
2023-02-27T09:35:14.563Z,34.28
2023-02-27T09:36:14.583Z,34.20
2023-02-27T09:37:14.557Z,34.02
2023-02-27T09:38:13.561Z,34.47
2023-02-27T09:39:14.544Z,34.32
2023-02-27T09:40:14.533Z,34.71
2023-02-27T09:41:13.539Z,34.36
2023-02-27T09:42:14.511Z,34.67
2023-02-27T09:43:14.863Z,34.50
2023-02-27T09:44:14.549Z,34.55
2023-02-27T09:45:14.503Z,34.61
2023-02-27T09:46:13.561Z,34.69
2023-02-27T09:47:14.494Z,34.85
2023-02-27T09:48:14.486Z,34.56
2023-02-27T09:49:14.472Z,34.60
2023-02-27T09:50:13.469Z,34.49
2023-02-27T09:51:14.465Z,34.68
2023-02-27T09:52:14.454Z,34.69
2023-02-27T09:53:13.462Z,34.62
2023-02-27T09:54:14.437Z,34.84
2023-02-27T09:55:14.433Z,34.95
2023-02-27T09:56:14.657Z,34.83
2023-02-27T09:57:13.418Z,34.87
2023-02-27T09:58:14.794Z,34.79
2023-02-27T09:59:14.462Z,34.95
2023-02-27T10:00:14.390Z,34.90
2023-02-27T10:01:14.385Z,34.84
2023-02-27T10:02:13.428Z,34.83
2023-02-27T10:03:14.490Z,34.76
2023-02-27T10:04:13.434Z,34.86
2023-02-27T10:05:14.453Z,34.78
2023-02-27T10:06:14.502Z,34.72
2023-02-27T10:07:13.540Z,34.67
2023-02-27T10:08:14.589Z,34.65
2023-02-27T10:09:14.627Z,34.64
2023-02-27T10:10:14.662Z,34.61
2023-02-27T10:11:14.708Z,34.59
2023-02-27T10:12:14.758Z,34.62
2023-02-27T10:13:14.801Z,34.66
2023-02-27T10:14:13.873Z,34.59
2023-02-27T10:15:13.937Z,34.54
2023-02-27T10:16:14.995Z,34.48
2023-02-27T10:17:14.981Z,34.47
2023-02-27T10:19:15.081Z,34.33
2023-02-27T10:20:15.126Z,34.31
2023-02-27T10:21:14.171Z,34.27
2023-02-27T10:22:15.220Z,34.23
2023-02-27T10:23:15.263Z,34.22
2023-02-27T10:24:14.337Z,34.07
2023-02-27T10:26:14.461Z,34.02
2023-02-27T10:27:15.542Z,33.98
2023-02-27T10:28:15.619Z,33.92
2023-02-27T10:29:15.619Z,33.86
2023-02-27T10:30:23.588Z,33.78
2023-02-27T10:31:15.815Z,33.72
2023-02-27T10:32:15.816Z,33.69
2023-02-27T10:33:15.684Z,33.61
2023-02-27T10:34:15.675Z,33.57
2023-02-27T10:35:14.652Z,33.53
2023-02-27T10:36:30.651Z,33.50
2023-02-27T10:37:15.635Z,33.46
2023-02-27T10:38:15.682Z,33.43
2023-02-27T10:39:14.625Z,33.34
2023-02-27T10:40:15.636Z,33.33
2023-02-27T10:41:15.612Z,33.29
2023-02-27T10:42:15.594Z,33.24
2023-02-27T10:43:15.620Z,33.19
2023-02-27T10:44:14.593Z,33.14
2023-02-27T10:45:16.373Z,33.07
2023-02-27T10:46:15.667Z,33.03
2023-02-27T10:47:15.656Z,32.71
2023-02-27T10:48:15.602Z,32.83
2023-02-27T10:49:18.311Z,32.15
2023-02-27T10:50:15.536Z,32.44
2023-02-27T10:51:15.536Z,32.28
2023-02-27T10:52:15.527Z,32.36
2023-02-27T10:53:15.531Z,32.46
2023-02-27T10:54:15.516Z,32.53
2023-02-27T10:55:15.496Z,32.56
2023-02-27T10:56:15.504Z,32.63
2023-02-27T10:57:15.498Z,32.63
2023-02-27T10:58:14.486Z,32.81
2023-02-27T10:59:14.493Z,32.74
2023-02-27T11:00:14.456Z,32.81
2023-02-27T11:01:15.507Z,32.77
2023-02-27T11:02:15.453Z,32.75
2023-02-27T11:03:15.475Z,32.78
2023-02-27T11:04:15.457Z,32.75
2023-02-27T11:05:15.436Z,32.70
2023-02-27T11:06:14.440Z,32.73
2023-02-27T11:07:15.411Z,32.76
2023-02-27T11:08:15.421Z,32.78
2023-02-27T11:09:15.418Z,32.77
2023-02-27T11:10:14.397Z,32.79
2023-02-27T11:11:15.382Z,32.80
2023-02-27T11:12:15.377Z,32.82
2023-02-27T11:13:15.389Z,32.81
2023-02-27T11:14:15.374Z,32.80
2023-02-27T11:15:15.386Z,32.83
2023-02-27T11:16:15.526Z,32.80
2023-02-27T11:17:14.353Z,32.84
2023-02-27T11:18:15.325Z,32.80
2023-02-27T11:19:15.404Z,32.78
2023-02-27T11:20:15.497Z,32.74
2023-02-27T11:21:15.488Z,32.62
2023-02-27T11:22:15.548Z,32.56
2023-02-27T11:23:15.602Z,32.61
2023-02-27T11:24:15.640Z,32.57
2023-02-27T11:25:15.698Z,32.59
2023-02-27T11:26:15.733Z,32.69
2023-02-27T11:27:14.769Z,32.63
2023-02-27T11:28:15.827Z,32.58
2023-02-27T11:29:15.880Z,32.35
2023-02-27T11:30:17.126Z,32.51
2023-02-27T11:31:16.029Z,32.49
2023-02-27T11:32:16.085Z,32.48
2023-02-27T11:33:16.094Z,32.52
2023-02-27T11:34:15.154Z,32.52
2023-02-27T11:35:16.224Z,32.49
2023-02-27T11:36:17.890Z,32.46
2023-02-27T11:37:16.234Z,32.49
2023-02-27T11:38:16.229Z,32.49
2023-02-27T11:39:16.218Z,32.51
2023-02-27T11:40:16.270Z,32.50
2023-02-27T11:41:16.198Z,32.59
2023-02-27T11:42:17.383Z,32.55
2023-02-27T11:43:16.199Z,32.62
2023-02-27T11:44:16.336Z,32.61
2023-02-27T11:45:16.171Z,32.58
2023-02-27T11:46:46.883Z,32.61
2023-02-27T11:47:16.196Z,32.67
2023-02-27T11:48:16.141Z,32.66
2023-02-27T11:49:16.121Z,32.64
2023-02-27T11:50:16.124Z,32.66
2023-02-27T11:51:15.142Z,32.67
2023-02-27T11:52:16.113Z,32.66
2023-02-27T11:53:15.107Z,32.66
2023-02-27T11:54:15.126Z,32.68
2023-02-27T11:55:16.111Z,32.66
2023-02-27T11:56:16.080Z,32.68
2023-02-27T11:57:16.072Z,32.69
2023-02-27T11:58:16.074Z,32.67
2023-02-27T11:59:15.060Z,32.65
2023-02-27T12:00:15.124Z,32.70
2023-02-27T12:01:16.046Z,32.68
2023-02-27T12:02:16.027Z,32.67
2023-02-27T12:03:15.122Z,32.68
2023-02-27T12:04:16.127Z,32.65
2023-02-27T12:05:16.090Z,32.61
2023-02-27T12:06:15.996Z,32.65
2023-02-27T12:07:16.027Z,32.65
2023-02-27T12:08:15.986Z,32.65
2023-02-27T12:09:15.986Z,32.60
2023-02-27T12:10:14.971Z,32.61
2023-02-27T12:11:16.017Z,32.58
2023-02-27T12:12:15.971Z,32.56
2023-02-27T12:13:16.008Z,32.57
2023-02-27T12:14:16.059Z,32.58
2023-02-27T12:15:16.118Z,32.53
2023-02-27T12:16:15.199Z,32.53
2023-02-27T12:17:16.263Z,32.51
2023-02-27T12:18:15.301Z,32.50
2023-02-27T12:19:16.382Z,32.49
2023-02-27T12:20:15.423Z,32.46
2023-02-27T12:21:15.472Z,32.43
2023-02-27T12:22:16.552Z,32.37
2023-02-27T12:23:16.572Z,32.38
2023-02-27T12:24:16.620Z,32.39
2023-02-27T12:25:16.673Z,32.33
2023-02-27T12:26:16.721Z,32.31
2023-02-27T12:27:16.756Z,32.29
2023-02-27T12:28:16.799Z,32.29
2023-02-27T12:29:16.826Z,32.24
2023-02-27T12:30:15.867Z,32.15
2023-02-27T12:31:16.977Z,32.18
2023-02-27T12:32:16.036Z,32.15
2023-02-27T12:33:15.973Z,32.12
2023-02-27T12:34:16.980Z,32.09
2023-02-27T12:35:16.989Z,32.08
2023-02-27T12:36:16.993Z,32.06
2023-02-27T12:37:17.001Z,32.03
2023-02-27T12:38:16.002Z,31.99
2023-02-27T12:39:17.368Z,31.97
2023-02-27T12:40:17.015Z,31.97
2023-02-27T12:41:17.008Z,31.92
2023-02-27T12:42:17.012Z,31.88
2023-02-27T12:43:17.020Z,31.85
2023-02-27T12:44:16.053Z,31.86
2023-02-27T12:45:17.045Z,31.86
2023-02-27T12:46:17.054Z,31.86
2023-02-27T12:47:17.084Z,31.84
2023-02-27T12:48:17.123Z,31.82
2023-02-27T12:49:16.114Z,31.78
2023-02-27T12:50:17.133Z,31.68
2023-02-27T12:51:17.136Z,31.72
2023-02-27T12:52:16.139Z,31.71
2023-02-27T12:53:17.176Z,31.70
2023-02-27T12:54:17.206Z,31.68
2023-02-27T12:55:17.244Z,31.62
2023-02-27T12:56:17.212Z,31.50
2023-02-27T12:57:17.228Z,31.54
2023-02-27T12:58:17.280Z,31.52
2023-02-27T12:59:16.266Z,31.50
2023-02-27T13:00:16.277Z,31.48
2023-02-27T13:01:16.319Z,31.50
2023-02-27T13:02:17.303Z,31.51
2023-02-27T13:03:17.342Z,31.48
2023-02-27T13:04:16.401Z,31.49
2023-02-27T13:05:17.406Z,31.49
2023-02-27T13:06:17.447Z,31.46
2023-02-27T13:07:17.456Z,31.40
2023-02-27T13:08:16.475Z,31.43
2023-02-27T13:09:17.501Z,31.41
2023-02-27T13:10:16.525Z,31.40
2023-02-27T13:11:17.621Z,31.38
2023-02-27T13:12:16.588Z,31.28
2023-02-27T13:13:17.606Z,31.28
2023-02-27T13:14:17.634Z,31.20
2023-02-27T13:15:17.672Z,31.23
2023-02-27T13:16:17.742Z,31.16
2023-02-27T13:17:17.726Z,31.13
2023-02-27T13:18:16.715Z,31.12
2023-02-27T13:19:17.756Z,31.10
2023-02-27T13:20:16.778Z,31.10
2023-02-27T13:21:17.799Z,31.09
2023-02-27T13:22:17.827Z,31.11
2023-02-27T13:23:17.840Z,31.02
2023-02-27T13:24:17.958Z,31.00
2023-02-27T13:25:16.880Z,30.99
2023-02-27T13:27:16.939Z,30.91
2023-02-27T13:28:17.924Z,30.91
2023-02-27T13:29:17.948Z,30.92
2023-02-27T13:30:16.973Z,30.90
2023-02-27T13:31:17.968Z,30.89
2023-02-27T13:32:18.077Z,30.87
2023-02-27T13:33:18.030Z,30.87
2023-02-27T13:34:18.050Z,30.82
2023-02-27T13:35:18.010Z,30.84
2023-02-27T13:36:18.052Z,30.81
2023-02-27T13:37:17.098Z,30.74
2023-02-27T13:40:17.058Z,30.72
2023-02-27T13:41:18.050Z,29.99
2023-02-27T13:42:18.078Z,30.49
2023-02-27T13:43:18.122Z,31.21
2023-02-27T13:44:17.087Z,31.29
2023-02-27T13:45:17.092Z,31.40
2023-02-27T13:46:18.142Z,33.21
2023-02-27T13:47:18.152Z,33.28
2023-02-27T13:48:18.139Z,33.34
2023-02-27T13:49:28.770Z,33.17
2023-02-27T13:50:18.151Z,32.69
2023-02-27T13:51:18.136Z,32.48
2023-02-27T13:52:17.133Z,32.32
2023-02-27T13:53:17.133Z,32.28
2023-02-27T13:54:17.119Z,32.17
2023-02-27T13:56:17.085Z,32.15
2023-02-27T13:59:18.114Z,32.04
2023-02-27T14:00:17.075Z,32.02
2023-02-27T14:02:17.106Z,32.00
2023-02-27T14:05:18.042Z,31.96
2023-02-27T14:21:17.941Z,31.74
2023-02-27T14:22:16.925Z,31.72
2023-02-27T14:27:16.877Z,31.66
2023-02-27T14:29:17.888Z,31.62
2023-02-27T14:30:17.856Z,31.62
2023-02-27T14:31:17.959Z,31.59
2023-02-27T14:33:21.661Z,31.59
2023-02-27T14:36:17.813Z,31.53
2023-02-27T14:42:17.880Z,31.44
2023-02-27T14:43:16.748Z,31.43
2023-02-27T14:49:17.716Z,31.29
2023-02-27T14:54:17.716Z,31.19
2023-02-27T14:57:16.682Z,31.14
2023-02-27T15:00:17.658Z,31.08
2023-02-27T15:03:17.697Z,31.08
2023-02-27T15:07:16.609Z,30.97
2023-02-27T15:09:16.592Z,30.96
2023-02-27T15:10:17.595Z,30.99
2023-02-27T15:13:17.582Z,30.89
2023-02-27T15:20:17.527Z,30.77
2023-02-27T15:22:19.632Z,30.75
2023-02-27T15:25:16.479Z,30.71
2023-02-27T15:31:17.476Z,30.60
2023-02-27T15:33:17.431Z,30.57
2023-02-27T15:34:17.419Z,30.57
2023-02-27T15:35:17.461Z,30.49
2023-02-27T15:38:19.408Z,30.34
2023-02-27T15:40:16.386Z,30.18
2023-02-27T15:41:17.373Z,30.23
2023-02-27T15:42:17.357Z,30.22
2023-02-27T15:45:17.329Z,30.13
2023-02-27T15:46:17.341Z,30.14
2023-02-27T15:48:16.306Z,30.24
2023-02-27T15:51:17.315Z,30.03
2023-02-27T15:53:16.279Z,30.07